»·PEaware :: N516DM KSNA-KPSP

N516DM :: KSNA-KPSP

FLIGHT INFORMATION

Flight Status: Arrived
Operator: Privately registered:
United States
More flights under this callsign
Pilot: Conner P. (17787)
Aircraft: CESSNA 182 SKYLANE
(C182)
More flights by this aircraft type
Origin: KSNA John Wayne-Orange Co
United States
Destination: KPSP Palm Springs Intl
United States
More flights between these airports :: More routes between these airports
Route: SLI V64 TRM
File this flight plan on PilotEdge
Remarks:
Altitude:
(Current/Filed)
9,000ft
Speed:
(Current/Filed)
120kts
Departed: 05-Jan-18 08:17 PM
Arrived: 05-Jan-18 09:18 PM
Distance/Time
Traveled:
69nm/1:01
Distance/Time
To Go:
Arrived

Flight Plot

Page will automatically refresh every two minutes.


Map Options




Map Legend


Flown Route
Filed Route
Departure Airport
Arrival Airport
Navaid (VOR, NDB)
Fix

Horizontal Profiles

Position Reports

Time Latitude Longitude Heading Altitude Ground
Speed
05-Jan-18 20:02 33.667849 -117.871285 37 59ft 0kts
05-Jan-18 20:03 33.667849 -117.871285 37 59ft 0kts
05-Jan-18 20:04 33.667849 -117.871285 37 59ft 0kts
05-Jan-18 20:05 33.667850 -117.871285 37 59ft 0kts
05-Jan-18 20:06 33.667850 -117.871285 37 59ft 0kts
05-Jan-18 20:07 33.667850 -117.871285 37 59ft 0kts
05-Jan-18 20:08 33.667852 -117.871283 37 59ft 0kts
05-Jan-18 20:09 33.667854 -117.871281 37 59ft 0kts
05-Jan-18 20:10 33.667856 -117.871279 37 59ft 0kts
05-Jan-18 20:11 33.667858 -117.871277 37 59ft 0kts
05-Jan-18 20:12 33.667861 -117.871275 37 59ft 0kts
05-Jan-18 20:13 33.667863 -117.871273 37 59ft 0kts
05-Jan-18 20:14 33.667865 -117.871271 37 59ft 0kts
05-Jan-18 20:15 33.667981 -117.871232 348 59ft 3kts
05-Jan-18 20:16 33.669131 -117.871207 39 59ft 3kts
05-Jan-18 20:17 33.671752 -117.868692 42 59ft 19kts
05-Jan-18 20:18 33.674231 -117.866642 298 59ft 10kts
05-Jan-18 20:19 33.677048 -117.865251 26 59ft 22kts
05-Jan-18 20:20 33.679399 -117.863843 25 59ft 0kts
05-Jan-18 20:21 33.679407 -117.863839 25 59ft 0kts
05-Jan-18 20:22 33.679527 -117.863773 16 59ft 3kts
05-Jan-18 20:23 33.677012 -117.866176 207 59ft 70kts
05-Jan-18 20:24 33.658251 -117.885690 230 1036ft 94kts
05-Jan-18 20:25 33.639681 -117.908994 230 1996ft 102kts
05-Jan-18 20:26 33.620045 -117.943119 257 1982ft 143kts
05-Jan-18 20:27 33.642047 -117.976672 327 2367ft 126kts
05-Jan-18 20:28 33.672492 -117.991647 335 3057ft 112kts
05-Jan-18 20:29 33.700057 -117.997332 46 3759ft 107kts
05-Jan-18 20:30 33.718204 -117.968909 50 4436ft 110kts
05-Jan-18 20:31 33.737223 -117.939188 51 5052ft 113kts
05-Jan-18 20:32 33.756866 -117.908683 51 5657ft 117kts
05-Jan-18 20:33 33.769591 -117.873497 91 6256ft 118kts
05-Jan-18 20:34 33.766818 -117.833758 96 6858ft 121kts
05-Jan-18 20:35 33.763663 -117.792840 96 7462ft 123kts
05-Jan-18 20:36 33.760500 -117.751723 97 8055ft 123kts
05-Jan-18 20:37 33.757362 -117.710713 97 8642ft 123kts
05-Jan-18 20:38 33.754124 -117.668626 97 9007ft 138kts
05-Jan-18 20:39 33.750316 -117.620110 97 9006ft 149kts
05-Jan-18 20:40 33.746391 -117.569731 97 9004ft 153kts
05-Jan-18 20:41 33.742408 -117.518725 97 8998ft 153kts
05-Jan-18 20:42 33.738376 -117.467691 97 9001ft 154kts
05-Jan-18 20:43 33.734309 -117.416349 97 9005ft 154kts
05-Jan-18 20:44 33.730239 -117.365225 97 9006ft 154kts
05-Jan-18 20:45 33.726155 -117.314005 97 9007ft 154kts
05-Jan-18 20:46 33.722033 -117.262609 97 9010ft 154kts
05-Jan-18 20:47 33.717887 -117.211391 97 9017ft 154kts
05-Jan-18 20:48 33.713724 -117.160164 97 9021ft 154kts
05-Jan-18 20:49 33.709532 -117.108728 97 9023ft 154kts
05-Jan-18 20:50 33.705299 -117.057287 97 9007ft 155kts
05-Jan-18 20:51 33.701038 -117.005700 97 9004ft 154kts
05-Jan-18 20:52 33.697377 -116.954276 94 9002ft 154kts
05-Jan-18 20:53 33.694543 -116.902704 94 8994ft 155kts
05-Jan-18 20:54 33.691679 -116.850860 96 8986ft 155kts
05-Jan-18 20:55 33.686827 -116.799488 97 8984ft 155kts
05-Jan-18 20:56 33.682218 -116.747969 97 8981ft 155kts
05-Jan-18 20:57 33.677596 -116.696230 97 8983ft 155kts
05-Jan-18 20:58 33.672945 -116.644880 97 8989ft 154kts
05-Jan-18 20:59 33.668354 -116.593623 97 8987ft 155kts
05-Jan-18 21:00 33.663558 -116.541986 97 8984ft 155kts
05-Jan-18 21:01 33.658857 -116.490460 97 8977ft 155kts
05-Jan-18 21:02 33.654105 -116.438613 97 8974ft 156kts
05-Jan-18 21:03 33.649339 -116.386968 97 8966ft 155kts
05-Jan-18 21:04 33.644978 -116.340156 97 8498ft 115kts
05-Jan-18 21:05 33.641316 -116.301123 97 6903ft 125kts
05-Jan-18 21:06 33.637651 -116.261888 97 5328ft 114kts
05-Jan-18 21:07 33.634158 -116.224671 96 3975ft 99kts
05-Jan-18 21:08 33.630290 -116.183191 96 3936ft 140kts
05-Jan-18 21:09 33.629050 -116.139794 86 3944ft 127kts
05-Jan-18 21:10 33.624519 -116.102445 150 3941ft 115kts
05-Jan-18 21:11 33.608750 -116.123556 302 3947ft 118kts
05-Jan-18 21:12 33.626540 -116.157126 301 3945ft 120kts
05-Jan-18 21:13 33.644831 -116.188695 304 3460ft 111kts
05-Jan-18 21:14 33.662113 -116.218351 304 2952ft 106kts
05-Jan-18 21:15 33.678106 -116.245699 304 2950ft 96kts
05-Jan-18 21:16 33.693825 -116.272711 304 3010ft 107kts
05-Jan-18 21:17 33.712057 -116.303964 304 3008ft 128kts
05-Jan-18 21:18 33.734067 -116.341719 304 3017ft 142kts
05-Jan-18 21:19 33.757014 -116.381144 304 3022ft 140kts
05-Jan-18 21:20 33.776237 -116.422813 293 2949ft 148kts
05-Jan-18 21:21 33.789763 -116.462651 293 1721ft 105kts
05-Jan-18 21:22 33.802676 -116.483694 322 1083ft 70kts
05-Jan-18 21:23 33.817941 -116.497220 323 579ft 67kts
05-Jan-18 21:24 33.827439 -116.505670 323 480ft 26kts

Navigation Log

Ident Type
1. KSNA Airport
2. SLI Navaid
3. TUSTI Fix
4. COREL Fix
5. NIKKL Fix
6. PERIS Fix
7. HEMET Fix
8. HAPPE Fix
9. BALDI Fix
10. CORLA Fix
11. TRM Navaid
12. KPSP Airport